Time;durP1;ratioP1;P1;durP2;ratioP2;P2;SDS_P1;SDS_P2;PMS_P1;PMS_P2;Temp;Humidity;BMP_temperature;BMP_pressure;BME280_temperature;BME280_humidity;BME280_pressure;Samples;Min_cycle;Max_cycle;Signal;HPM_P1;HPM_P2
2021/09/24 00:00:26;;;;;;;1.63;1.63;;;;;;;14.25;76.64;100701.75;4977682;28;20042;-80
2021/09/24 00:02:51;;;;;;;3.10;1.50;;;;;;;14.21;76.36;100699.88;4976913;28;20091;-81
2021/09/24 00:05:17;;;;;;;1.30;1.30;;;;;;;14.18;76.54;100701.25;4955425;28;20047;-77
2021/09/24 00:07:43;;;;;;;1.50;1.17;;;;;;;14.20;76.22;100703.72;4982126;28;20023;-76
2021/09/24 00:10:10;;;;;;;0.90;0.90;;;;;;;14.17;76.90;100698.78;4964960;28;20079;-76
2021/09/24 00:12:37;;;;;;;1.27;1.27;;;;;;;14.12;77.01;100692.19;4973083;28;20114;-76
2021/09/24 00:15:05;;;;;;;1.40;1.00;;;;;;;14.13;77.00;100696.59;4947494;28;20031;-77
2021/09/24 00:17:30;;;;;;;1.95;1.00;;;;;;;14.10;76.99;100688.09;4978438;28;20038;-77
2021/09/24 00:19:56;;;;;;;0.60;0.60;;;;;;;14.10;76.92;100688.91;4986177;28;20035;-77
2021/09/24 00:22:21;;;;;;;0.35;0.35;;;;;;;14.06;77.02;100687.84;4967110;28;20039;-78
2021/09/24 00:24:47;;;;;;;0.50;0.50;;;;;;;14.08;77.23;100684.81;4987053;28;20030;-77
2021/09/24 00:27:13;;;;;;;0.90;0.90;;;;;;;14.06;76.96;100679.59;4988263;28;20038;-77
2021/09/24 00:29:38;;;;;;;1.42;1.25;;;;;;;14.09;77.21;100681.78;4987257;28;20026;-77
2021/09/24 00:32:04;;;;;;;1.00;1.00;;;;;;;14.07;76.82;100683.97;4973105;28;20460;-76
2021/09/24 00:34:30;;;;;;;1.50;1.30;;;;;;;14.07;77.43;100680.41;4982087;28;20019;-77
2021/09/24 00:36:55;;;;;;;1.35;1.05;;;;;;;14.09;77.25;100681.78;4987067;28;20082;-77
2021/09/24 00:39:21;;;;;;;1.70;1.60;;;;;;;14.17;77.72;100682.28;4966298;28;20039;-77
2021/09/24 00:41:47;;;;;;;1.83;1.73;;;;;;;14.22;78.02;100674.84;4966208;28;20047;-79
2021/09/24 00:44:12;;;;;;;2.45;1.48;;;;;;;14.27;77.50;100672.03;4965282;28;20038;-77
2021/09/24 00:46:38;;;;;;;1.23;1.23;;;;;;;14.29;78.12;100663.50;4963678;28;20023;-77
2021/09/24 00:49:03;;;;;;;1.48;1.48;;;;;;;14.26;78.03;100653.06;4959988;28;20038;-75
2021/09/24 00:51:30;;;;;;;1.63;1.52;;;;;;;14.22;78.09;100663.00;4959560;28;20126;-75
2021/09/24 00:53:56;;;;;;;0.90;0.90;;;;;;;14.19;77.77;100656.13;4960293;28;20024;-76
2021/09/24 00:56:23;;;;;;;1.08;1.08;;;;;;;14.12;77.96;100648.19;4973943;28;20055;-75
2021/09/24 00:58:48;;;;;;;1.23;1.13;;;;;;;14.09;78.37;100653.44;4970122;28;20031;-75
2021/09/24 01:01:14;;;;;;;1.08;1.00;;;;;;;14.05;78.59;100646.88;4958100;28;20048;-76
2021/09/24 01:03:40;;;;;;;1.20;1.10;;;;;;;14.04;78.80;100646.03;4965928;28;20042;-76
2021/09/24 01:06:05;;;;;;;1.23;1.20;;;;;;;14.00;78.56;100633.97;4965365;28;20053;-76
2021/09/24 01:08:32;;;;;;;1.15;1.15;;;;;;;13.98;78.72;100640.88;4959133;28;20035;-76
2021/09/24 01:10:58;;;;;;;0.90;0.90;;;;;;;13.95;78.92;100636.75;4958198;28;20037;-76
2021/09/24 01:13:23;;;;;;;0.90;0.90;;;;;;;13.93;78.90;100630.69;4951188;28;20039;-75
2021/09/24 01:15:49;;;;;;;1.15;1.10;;;;;;;13.87;79.30;100631.84;4967456;28;20032;-78
2021/09/24 01:18:14;;;;;;;1.30;1.20;;;;;;;13.86;79.32;100641.22;4955242;28;20761;-77
2021/09/24 01:20:40;;;;;;;1.73;1.63;;;;;;;13.86;79.49;100647.53;4957688;28;20031;-77
2021/09/24 01:23:06;;;;;;;1.55;1.23;;;;;;;13.89;79.48;100646.16;4961039;28;20023;-76
2021/09/24 01:25:31;;;;;;;1.40;1.40;;;;;;;13.93;79.56;100639.78;4963855;28;20406;-74
2021/09/24 01:27:57;;;;;;;1.52;1.42;;;;;;;13.99;79.64;100637.84;4981678;28;20035;-77
2021/09/24 01:30:23;;;;;;;1.50;1.40;;;;;;;14.02;80.04;100629.00;4967648;28;20027;-76
2021/09/24 01:32:49;;;;;;;1.65;1.55;;;;;;;14.05;80.41;100635.88;4957899;28;20043;-77
2021/09/24 01:35:16;;;;;;;1.85;1.30;;;;;;;14.09;79.75;100631.44;4957280;28;20496;-78
2021/09/24 01:37:42;;;;;;;2.25;1.42;;;;;;;14.13;80.40;100638.84;4965861;28;20047;-76
2021/09/24 01:40:13;;;;;;;1.38;1.27;;;;;;;14.18;79.96;100634.41;4981627;28;20325;-76
2021/09/24 01:42:40;;;;;;;1.55;1.15;;;;;;;14.24;80.06;100633.28;4985654;28;20023;-77
2021/09/24 01:45:06;;;;;;;1.05;1.05;;;;;;;14.27;79.63;100622.53;4983255;28;20054;-75
2021/09/24 01:47:31;;;;;;;2.00;1.42;;;;;;;14.30;79.67;100621.94;4983245;28;20055;-75
2021/09/24 01:49:57;;;;;;;1.85;1.45;;;;;;;14.36;79.67;100630.97;4986274;28;20039;-78
2021/09/24 01:52:23;;;;;;;1.30;1.30;;;;;;;14.40;79.60;100621.06;4961647;28;20175;-76
2021/09/24 01:54:49;;;;;;;1.35;1.33;;;;;;;14.40;79.30;100615.56;4981150;28;20086;-77
2021/09/24 01:57:14;;;;;;;1.30;1.30;;;;;;;14.44;79.77;100613.88;4968293;28;20023;-74
2021/09/24 01:59:40;;;;;;;1.67;1.58;;;;;;;14.52;79.35;100617.94;4980917;28;20053;-77
2021/09/24 02:02:06;;;;;;;3.05;1.70;;;;;;;14.60;79.38;100609.06;4951472;28;20035;-77
2021/09/24 02:04:31;;;;;;;1.58;1.50;;;;;;;14.62;79.06;100606.06;4962533;28;20031;-77
2021/09/24 02:06:57;;;;;;;1.85;1.75;;;;;;;14.68;78.82;100612.34;4981470;28;20057;-77
2021/09/24 02:09:22;;;;;;;1.90;1.80;;;;;;;14.69;78.70;100612.06;4972746;28;20027;-75
2021/09/24 02:11:48;;;;;;;1.08;1.08;;;;;;;14.71;78.94;100615.31;4962212;28;20030;-76
2021/09/24 02:14:14;;;;;;;0.93;0.93;;;;;;;14.72;78.59;100614.22;4966490;28;20027;-79
2021/09/24 02:16:39;;;;;;;1.10;1.10;;;;;;;14.73;78.84;100618.59;4967002;28;20046;-79
2021/09/24 02:19:05;;;;;;;0.80;0.80;;;;;;;14.64;78.41;100609.34;4987130;28;20088;-77
2021/09/24 02:21:30;;;;;;;0.70;0.65;;;;;;;14.53;78.33;100605.81;4980364;28;20027;-78
2021/09/24 02:23:56;;;;;;;1.15;1.15;;;;;;;14.48;77.93;100614.94;4971263;28;20038;-77
2021/09/24 02:26:21;;;;;;;0.95;0.95;;;;;;;14.36;78.51;100608.97;4976489;28;20078;-78
2021/09/24 02:28:47;;;;;;;1.02;1.02;;;;;;;14.31;78.44;100600.78;4949484;28;20030;-77
2021/09/24 02:31:12;;;;;;;1.25;1.25;;;;;;;14.24;78.07;100595.59;4974930;28;20035;-77
2021/09/24 02:33:39;;;;;;;1.30;1.30;;;;;;;14.18;78.08;100590.41;4966596;28;20136;-78
2021/09/24 02:36:07;;;;;;;1.13;1.13;;;;;;;14.11;78.20;100597.06;4957913;28;20038;-78
2021/09/24 02:38:32;;;;;;;1.73;1.63;;;;;;;14.05;78.35;100597.38;4983114;28;20065;-78
2021/09/24 02:40:59;;;;;;;1.58;1.48;;;;;;;13.98;78.32;100594.94;4982963;28;20031;-77
2021/09/24 02:43:25;;;;;;;1.50;1.40;;;;;;;13.92;78.32;100594.16;4991145;28;20026;-77
2021/09/24 02:45:51;;;;;;;1.88;1.77;;;;;;;13.87;78.72;100590.59;4962619;28;20026;-78
2021/09/24 02:48:16;;;;;;;1.17;1.17;;;;;;;13.85;78.36;100592.84;4978731;28;20039;-77
2021/09/24 02:50:42;;;;;;;1.30;1.30;;;;;;;13.83;78.49;100600.53;4985886;28;20055;-77
2021/09/24 02:53:07;;;;;;;1.85;1.75;;;;;;;13.77;78.91;100597.81;4984688;28;20030;-79
2021/09/24 02:55:33;;;;;;;1.30;1.23;;;;;;;13.75;78.38;100597.25;4985184;28;20495;-79
2021/09/24 02:57:58;;;;;;;1.60;1.55;;;;;;;13.70;78.70;100591.81;4948502;28;20034;-78
2021/09/24 03:00:25;;;;;;;2.47;1.35;;;;;;;13.69;78.53;100594.84;4986939;28;20105;-78
2021/09/24 03:02:51;;;;;;;1.58;1.48;;;;;;;13.60;78.62;100583.63;4986417;28;20031;-76
2021/09/24 03:05:17;;;;;;;1.30;1.30;;;;;;;13.57;78.23;100586.94;4953350;28;20049;-78
2021/09/24 03:07:42;;;;;;;1.55;1.20;;;;;;;13.49;78.31;100591.09;4952506;28;20504;-77
2021/09/24 03:10:09;;;;;;;0.82;0.73;;;;;;;13.43;78.88;100581.22;4957050;28;20023;-77
2021/09/24 03:12:34;;;;;;;0.88;0.88;;;;;;;13.40;78.60;100582.63;4971248;28;20035;-76
2021/09/24 03:15:00;;;;;;;0.60;0.60;;;;;;;13.34;78.86;100577.38;4961734;28;20062;-78
2021/09/24 03:17:25;;;;;;;0.55;0.55;;;;;;;13.28;78.67;100582.06;4974492;28;20038;-78
2021/09/24 03:19:51;;;;;;;1.02;1.02;;;;;;;13.28;78.19;100584.81;4981605;28;20025;-76
2021/09/24 03:22:16;;;;;;;0.77;0.77;;;;;;;13.22;78.33;100585.94;4966920;28;20049;-78
2021/09/24 03:24:42;;;;;;;0.43;0.43;;;;;;;13.18;78.39;100590.34;4985141;28;20056;-79
2021/09/24 03:27:08;;;;;;;1.60;1.50;;;;;;;13.12;78.61;100592.28;4988593;28;20030;-79
2021/09/24 03:29:34;;;;;;;1.77;1.67;;;;;;;13.08;78.33;100600.28;4983119;28;20386;-78
2021/09/24 03:32:00;;;;;;;1.00;1.00;;;;;;;13.05;78.42;100598.09;4984395;28;20081;-78
2021/09/24 03:34:25;;;;;;;1.13;1.13;;;;;;;13.10;78.62;100592.56;4980529;28;20054;-78
2021/09/24 03:36:51;;;;;;;1.70;1.60;;;;;;;13.15;78.50;100585.41;4973433;28;20450;-78
2021/09/24 03:39:16;;;;;;;2.00;1.90;;;;;;;13.20;78.56;100571.66;4964399;28;20042;-77
2021/09/24 03:41:43;;;;;;;1.92;1.83;;;;;;;13.27;78.74;100585.91;4990933;28;20046;-77
2021/09/24 03:44:10;;;;;;;1.63;1.52;;;;;;;13.30;78.27;100579.84;4982065;28;20027;-77
2021/09/24 03:46:35;;;;;;;1.55;1.45;;;;;;;13.29;78.65;100580.97;4974619;28;20026;-77
2021/09/24 03:49:01;;;;;;;1.83;1.73;;;;;;;13.27;79.06;100583.16;4998775;28;20089;-77
2021/09/24 03:51:27;;;;;;;1.63;1.52;;;;;;;13.26;78.38;100581.53;4980275;28;20030;-75
2021/09/24 03:53:53;;;;;;;2.05;1.95;;;;;;;13.22;78.78;100572.22;4971133;28;20058;-77
2021/09/24 03:56:18;;;;;;;1.98;1.77;;;;;;;13.20;78.92;100580.72;4969351;28;20117;-76
2021/09/24 03:58:43;;;;;;;1.95;1.85;;;;;;;13.16;79.09;100581.56;4970840;28;20038;-76
2021/09/24 04:01:09;;;;;;;1.55;1.48;;;;;;;13.12;78.53;100575.00;4986924;28;20034;-75
2021/09/24 04:03:35;;;;;;;1.50;1.42;;;;;;;13.05;78.95;100565.13;4981417;28;20111;-77
2021/09/24 04:06:00;;;;;;;1.58;1.48;;;;;;;13.02;79.38;100565.66;4991667;28;20050;-77
2021/09/24 04:08:25;;;;;;;2.00;1.90;;;;;;;12.96;79.11;100560.50;4952320;28;20034;-78
2021/09/24 04:10:53;;;;;;;1.38;1.38;;;;;;;12.94;78.97;100569.00;4986591;28;20049;-78
2021/09/24 04:13:21;;;;;;;1.38;1.38;;;;;;;12.89;79.26;100567.09;4988060;28;20027;-77
2021/09/24 04:15:47;;;;;;;1.92;1.70;;;;;;;12.85;78.63;100559.69;4989599;28;20027;-77
2021/09/24 04:18:15;;;;;;;1.60;1.50;;;;;;;12.79;78.98;100558.06;4978451;28;20039;-77
2021/09/24 04:20:41;;;;;;;1.65;1.55;;;;;;;12.72;78.85;100547.38;4994325;28;20123;-77
2021/09/24 04:23:06;;;;;;;1.75;1.65;;;;;;;12.65;78.89;100547.66;4977072;28;20051;-77
2021/09/24 04:25:32;;;;;;;2.55;1.65;;;;;;;12.63;78.88;100551.75;4982493;28;20050;-77
2021/09/24 04:27:57;;;;;;;1.85;1.75;;;;;;;12.61;79.27;100557.53;4967661;28;20119;-77
2021/09/24 04:30:23;;;;;;;2.00;1.90;;;;;;;12.54;79.32;100560.56;4973874;28;20031;-75
2021/09/24 04:32:51;;;;;;;2.33;2.22;;;;;;;12.50;79.31;100554.00;4981910;28;20031;-75
2021/09/24 04:35:17;;;;;;;1.83;1.73;;;;;;;12.52;79.60;100557.25;4978396;28;20022;-76
2021/09/24 04:37:42;;;;;;;1.60;1.55;;;;;;;12.49;79.17;100562.50;4945173;28;20055;-77
2021/09/24 04:40:08;;;;;;;2.15;1.90;;;;;;;12.45;79.46;100556.72;4980430;28;20030;-75
2021/09/24 04:42:34;;;;;;;2.17;2.08;;;;;;;12.43;79.27;100558.13;4980937;28;20109;-76
2021/09/24 04:45:00;;;;;;;1.75;1.65;;;;;;;12.40;79.27;100570.44;4972007;28;20031;-78
2021/09/24 04:47:26;;;;;;;1.85;1.75;;;;;;;12.35;79.50;100564.94;4986187;28;20041;-77
2021/09/24 04:49:51;;;;;;;2.22;1.85;;;;;;;12.33;79.69;100570.72;4974114;28;20494;-77
2021/09/24 04:52:18;;;;;;;1.40;1.30;;;;;;;12.33;80.02;100570.72;4993898;28;20030;-77
2021/09/24 04:54:44;;;;;;;2.20;2.10;;;;;;;12.31;79.86;100561.09;4972670;28;20042;-76
2021/09/24 04:57:09;;;;;;;1.90;1.80;;;;;;;12.33;79.40;100564.41;4982056;28;20033;-76
2021/09/24 04:59:36;;;;;;;2.13;2.03;;;;;;;12.30;79.86;100560.28;4969093;28;20051;-77
2021/09/24 05:02:01;;;;;;;1.80;1.70;;;;;;;12.33;79.58;100565.22;4950342;29;20045;-76
2021/09/24 05:04:27;;;;;;;2.22;2.13;;;;;;;12.35;79.85;100560.31;4967449;28;20471;-77
2021/09/24 05:06:52;;;;;;;1.58;1.58;;;;;;;12.39;79.88;100555.91;4985856;28;20042;-77
2021/09/24 05:09:18;;;;;;;2.35;2.03;;;;;;;12.40;80.22;100548.50;4967311;28;20077;-77
2021/09/24 05:11:43;;;;;;;1.23;1.23;;;;;;;12.44;79.85;100548.78;4969222;28;20034;-78
2021/09/24 05:14:11;;;;;;;1.95;1.85;;;;;;;12.43;79.28;100550.69;4983793;28;20453;-77
2021/09/24 05:16:37;;;;;;;2.22;2.05;;;;;;;12.42;79.80;100550.97;4967318;28;20093;-77
2021/09/24 05:19:02;;;;;;;5.40;1.30;;;;;;;12.35;79.35;100541.13;4961654;28;20027;-78
2021/09/24 05:21:28;;;;;;;1.70;1.60;;;;;;;12.31;79.03;100542.75;4968229;28;20031;-78
2021/09/24 05:23:54;;;;;;;1.50;1.50;;;;;;;12.23;79.75;100543.28;4984938;28;20025;-78
2021/09/24 05:26:19;;;;;;;1.67;1.58;;;;;;;12.18;79.98;100540.56;4961218;28;20043;-78
2021/09/24 05:28:45;;;;;;;1.25;1.20;;;;;;;12.13;79.62;100532.31;4989293;28;20022;-78
2021/09/24 05:31:10;;;;;;;1.40;1.40;;;;;;;12.09;79.75;100536.72;4974193;28;20034;-78
2021/09/24 05:33:36;;;;;;;0.95;0.95;;;;;;;12.08;79.78;100543.31;4969057;28;20027;-79
2021/09/24 05:36:02;;;;;;;1.35;1.35;;;;;;;12.03;79.94;100541.34;4938070;28;20126;-77
2021/09/24 05:38:28;;;;;;;1.23;1.23;;;;;;;11.99;79.89;100538.34;4977421;28;20324;-76
2021/09/24 05:40:53;;;;;;;0.90;0.90;;;;;;;11.98;79.66;100536.69;4971175;28;20078;-76
2021/09/24 05:43:19;;;;;;;0.73;0.73;;;;;;;11.95;79.97;100540.00;4971267;28;20041;-79
2021/09/24 05:45:44;;;;;;;0.98;0.98;;;;;;;11.94;80.14;100541.06;4968072;28;20038;-77
2021/09/24 05:48:10;;;;;;;1.55;1.40;;;;;;;11.97;80.33;100540.56;4957294;28;20035;-78
2021/09/24 05:50:35;;;;;;;1.63;1.60;;;;;;;11.99;80.61;100530.13;4961407;28;20029;-78
2021/09/24 05:53:02;;;;;;;1.95;1.85;;;;;;;12.09;80.96;100544.94;4966873;28;20046;-77
2021/09/24 05:55:28;;;;;;;1.92;1.90;;;;;;;12.17;80.80;100549.88;4965319;28;20078;-78
2021/09/24 05:57:53;;;;;;;3.28;2.05;;;;;;;12.20;80.87;100549.31;4972567;28;20114;-78
2021/09/24 06:00:21;;;;;;;2.30;2.20;;;;;;;12.23;80.69;100548.78;4961610;28;20081;-80
2021/09/24 06:02:49;;;;;;;2.35;1.73;;;;;;;12.30;80.19;100548.53;4987093;28;20030;-77
2021/09/24 06:05:15;;;;;;;2.22;2.15;;;;;;;12.36;80.83;100553.72;4986313;28;20034;-78
2021/09/24 06:07:44;;;;;;;2.00;1.95;;;;;;;12.43;80.38;100553.44;4988162;28;20023;-77
2021/09/24 06:10:11;;;;;;;2.30;2.20;;;;;;;12.52;80.36;100557.25;4989041;28;20027;-77
2021/09/24 06:12:37;;;;;;;2.30;2.20;;;;;;;12.54;80.71;100546.00;4986956;28;20059;-77
2021/09/24 06:15:04;;;;;;;2.10;2.00;;;;;;;12.63;80.15;100552.59;4985266;28;20062;-76
2021/09/24 06:17:30;;;;;;;2.45;2.35;;;;;;;12.67;80.48;100553.66;4949167;28;20074;-73
2021/09/24 06:19:56;;;;;;;2.17;2.08;;;;;;;12.69;80.41;100540.50;4984258;28;20027;-75
2021/09/24 06:22:23;;;;;;;2.60;2.50;;;;;;;12.73;80.61;100547.09;4986034;28;20049;-76
2021/09/24 06:24:48;;;;;;;2.42;2.33;;;;;;;12.75;80.07;100553.13;4968048;28;20026;-76
2021/09/24 06:27:14;;;;;;;2.92;2.70;;;;;;;12.78;80.33;100548.19;4956155;28;20102;-77
2021/09/24 06:29:44;;;;;;;2.70;2.50;;;;;;;12.81;80.63;100537.47;4966918;28;20057;-76
2021/09/24 06:32:11;;;;;;;2.50;2.40;;;;;;;12.90;80.22;100555.00;4955529;28;20044;-77
2021/09/24 06:34:36;;;;;;;2.53;2.42;;;;;;;12.94;80.89;100547.03;4984590;28;20091;-77
2021/09/24 06:37:02;;;;;;;2.63;2.53;;;;;;;12.98;80.53;100552.78;4974352;28;20023;-76
2021/09/24 06:39:28;;;;;;;3.00;2.90;;;;;;;12.99;80.21;100552.50;4982197;28;20572;-76
2021/09/24 06:41:53;;;;;;;3.13;2.97;;;;;;;12.99;79.98;100548.94;4970002;28;20034;-76
2021/09/24 06:44:19;;;;;;;2.63;2.50;;;;;;;13.00;80.58;100545.91;4966971;28;20031;-77
2021/09/24 06:46:44;;;;;;;2.78;2.67;;;;;;;13.07;79.99;100551.94;4966817;28;20082;-77
2021/09/24 06:49:09;;;;;;;2.80;2.70;;;;;;;13.15;80.26;100544.22;4986075;28;20027;-75
2021/09/24 06:51:35;;;;;;;3.08;2.88;;;;;;;13.24;80.51;100545.28;4982643;28;20034;-75
2021/09/24 06:54:01;;;;;;;3.05;2.88;;;;;;;13.36;80.12;100554.06;4962789;28;20038;-72
2021/09/24 06:56:26;;;;;;;4.45;3.05;;;;;;;13.42;80.02;100541.94;4966072;28;20030;-75
2021/09/24 06:58:52;;;;;;;5.75;2.97;;;;;;;13.49;80.60;100536.16;4963308;28;20026;-76
2021/09/24 07:01:17;;;;;;;2.78;2.58;;;;;;;13.59;80.36;100535.25;4967718;28;20114;-77
2021/09/24 07:03:43;;;;;;;3.20;3.10;;;;;;;13.65;79.90;100528.63;4982806;28;20430;-77
2021/09/24 07:06:08;;;;;;;3.10;3.00;;;;;;;13.67;79.91;100525.59;4955806;28;20026;-77
2021/09/24 07:08:34;;;;;;;3.47;3.22;;;;;;;13.74;79.90;100531.59;4964006;28;20035;-77
2021/09/24 07:10:59;;;;;;;3.03;2.83;;;;;;;13.75;79.99;100533.25;4951398;28;20062;-77
2021/09/24 07:13:25;;;;;;;5.22;3.22;;;;;;;13.77;79.82;100525.56;4958219;28;20023;-75
2021/09/24 07:16:18;;;;;;;;;;;;;;;;;;;;;
2021/09/24 07:19:17;;;;;;;3.05;2.85;;;;;;;13.89;79.83;100527.94;4965048;28;20097;-73
2021/09/24 07:22:30;;;;;;;;;;;;;;;;;;;;;
2021/09/24 07:28:27;;;;;;;1.95;1.85;;;;;;;14.44;78.92;100547.84;4976809;28;20038;-76
2021/09/24 07:30:55;;;;;;;2.20;2.00;;;;;;;14.47;79.03;100528.00;4956383;28;20033;-76
2021/09/24 07:33:24;;;;;;;2.47;2.28;;;;;;;14.73;78.84;100536.00;4958902;28;20035;-75
2021/09/24 07:36:13;;;;;;;1.90;1.80;;;;;;;14.95;78.52;100545.72;4972256;28;20023;-76
2021/09/24 07:38:53;;;;;;;3.80;2.50;;;;;;;15.13;77.84;100547.69;4914959;28;20115;-77
2021/09/24 07:41:35;;;;;;;;;;;;;;;;;;;;;
2021/09/24 07:54:27;;;;;;;;;;;;;;;;;;;;;
2021/09/24 08:03:50;;;;;;;;;;;;;;;;;;;;;
2021/09/24 08:06:25;;;;;;;0.73;0.73;;;;;;;17.68;72.37;100563.34;4824781;29;20129;-76
2021/09/24 08:08:56;;;;;;;1.05;0.90;;;;;;;18.22;71.07;100550.47;4903789;29;20055;-78
2021/09/24 08:11:37;;;;;;;0.80;0.63;;;;;;;18.88;69.50;100558.25;4927581;29;20152;-77
2021/09/24 08:14:56;;;;;;;;;;;;;;;;;;;;;
2021/09/24 08:18:24;;;;;;;2.65;0.88;;;;;;;19.90;64.46;100550.81;4853232;29;20056;-76
2021/09/24 08:21:19;;;;;;;0.70;0.45;;;;;;;20.09;61.82;100563.56;4820680;29;20088;-75
2021/09/24 08:23:54;;;;;;;0.75;0.75;;;;;;;19.97;61.48;100550.34;4915710;28;20050;-75
2021/09/24 08:26:27;;;;;;;0.47;0.40;;;;;;;19.84;61.23;100546.59;4974861;28;20045;-74
2021/09/24 08:29:01;;;;;;;1.58;1.00;;;;;;;20.16;61.46;100558.34;4953389;28;20060;-75
2021/09/24 08:31:44;;;;;;;6.10;0.97;;;;;;;20.67;59.47;100553.06;4975940;28;20030;-74
2021/09/24 08:34:20;;;;;;;0.90;0.55;;;;;;;21.23;56.95;100555.75;4975162;28;20385;-74
2021/09/24 08:36:48;;;;;;;4.95;0.63;;;;;;;21.55;55.00;100557.09;4957454;28;20031;-74
2021/09/24 08:39:16;;;;;;;1.80;0.40;;;;;;;21.89;54.00;100555.22;4978252;28;20046;-74
2021/09/24 08:41:51;;;;;;;2.28;0.40;;;;;;;22.26;53.61;100563.72;4979557;28;20015;-75
2021/09/24 08:44:24;;;;;;;1.50;0.93;;;;;;;22.58;52.10;100563.28;4961364;28;20039;-74
2021/09/24 08:47:05;;;;;;;2.85;0.50;;;;;;;23.08;52.13;100559.41;4970311;28;20034;-76
2021/09/24 08:50:05;;;;;;;2.00;0.32;;;;;;;23.47;50.66;100553.50;4961894;28;20031;-77
2021/09/24 08:52:57;;;;;;;0.50;0.40;;;;;;;24.11;49.58;100574.22;4957413;28;20031;-78
2021/09/24 08:55:30;;;;;;;5.20;1.23;;;;;;;24.37;47.03;100567.34;4972204;28;20042;-75
2021/09/24 08:58:20;;;;;;;0.63;0.40;;;;;;;24.26;46.53;100567.03;4975952;28;20027;-75
2021/09/24 09:00:47;;;;;;;1.85;0.50;;;;;;;24.28;45.89;100558.31;4987216;28;20027;-75
2021/09/24 09:03:18;;;;;;;0.60;0.60;;;;;;;24.52;45.87;100572.16;4985453;28;20037;-75
2021/09/24 09:05:46;;;;;;;1.67;0.68;;;;;;;24.82;45.04;100563.38;4986437;28;20111;-74
2021/09/24 09:08:17;;;;;;;0.95;0.50;;;;;;;24.91;45.08;100569.63;4984129;28;20033;-74
2021/09/24 09:11:14;;;;;;;0.68;0.38;;;;;;;25.39;45.70;100577.19;4991187;28;20022;-74
2021/09/24 09:14:09;;;;;;;1.95;0.68;;;;;;;25.63;43.24;100592.13;4980627;28;20033;-75
2021/09/24 09:17:30;;;;;;;;;;;;;;;;;;;;;
2021/09/24 09:20:17;;;;;;;0.57;0.45;;;;;;;26.18;42.12;100584.59;4984457;28;20063;-75
2021/09/24 09:23:32;;;;;;;0.80;0.52;;;;;;;26.56;41.72;100585.72;4971275;28;20089;-77
2021/09/24 09:26:11;;;;;;;1.60;0.30;;;;;;;26.99;40.48;100578.09;4966384;28;20051;-76
2021/09/24 09:29:12;;;;;;;1.10;0.70;;;;;;;27.62;38.75;100581.53;4986575;28;20023;-77
2021/09/24 09:32:11;;;;;;;;;;;;;;;;;;;;;
2021/09/24 09:35:00;;;;;;;1.30;0.40;;;;;;;28.43;38.26;100572.94;4987724;28;20034;-76
2021/09/24 09:37:45;;;;;;;3.75;0.32;;;;;;;28.95;37.79;100565.44;4977077;28;20086;-77
2021/09/24 09:40:20;;;;;;;0.75;0.20;;;;;;;29.23;36.11;100564.09;4969630;28;20042;-79
2021/09/24 09:43:05;;;;;;;;;;;;;;;29.81;33.50;100582.16;4970280;28;20034;-76
2021/09/24 09:45:37;;;;;;;1.05;0.30;;;;;;;29.24;33.97;100582.59;4987559;28;19914;-78
2021/09/24 09:48:31;;;;;;;2.10;0.60;;;;;;;29.15;34.22;100568.03;4972483;28;20049;-77
2021/09/24 09:51:08;;;;;;;;;;;;;;;;;;;;;
2021/09/24 09:53:41;;;;;;;2.60;0.38;;;;;;;28.82;32.92;100583.81;4982688;28;20027;-77
2021/09/24 09:56:49;;;;;;;;;;;;;;;;;;;;;
2021/09/24 09:59:30;;;;;;;1.25;0.40;;;;;;;28.64;33.56;100573.19;4987564;28;20066;-75
2021/09/24 10:02:21;;;;;;;;;;;;;;;;;;;;;
2021/09/24 10:05:01;;;;;;;;;;;;;;;;;;;;;
2021/09/24 10:07:48;;;;;;;;;;;;;;;;;;;;;
2021/09/24 10:10:16;;;;;;;0.50;0.30;;;;;;;29.43;33.33;100556.19;4976101;28;20082;-75
2021/09/24 10:12:44;;;;;;;0.90;0.25;;;;;;;30.23;33.22;100554.59;4959092;28;20031;-76
2021/09/24 10:15:32;;;;;;;0.70;0.47;;;;;;;31.00;31.86;100548.69;4964639;28;20050;-77
2021/09/24 10:18:05;;;;;;;2.05;0.50;;;;;;;31.49;29.54;100551.88;4975077;28;20061;-76
2021/09/24 10:20:30;;;;;;;3.42;0.47;;;;;;;31.36;29.42;100551.50;4953258;28;20042;-75
2021/09/24 10:23:06;;;;;;;;;;;;;;;;;;;;;
2021/09/24 10:25:43;;;;;;;;;;;;;;;;;;;;;
2021/09/24 10:28:13;;;;;;;0.77;0.50;;;;;;;32.56;30.15;100549.81;4976064;28;20126;-74
2021/09/24 10:30:39;;;;;;;0.60;0.50;;;;;;;33.20;26.99;100557.03;4961940;28;20446;-78
2021/09/24 10:34:03;;;;;;;;;;;;;;;;;;;;;
2021/09/24 10:39:59;;;;;;;;;;;;;;;;;;;;;
2021/09/24 10:43:23;;;;;;;0.50;0.20;;;;;;;35.55;23.20;100540.41;4957709;28;20127;-78
2021/09/24 10:45:48;;;;;;;0.77;0.20;;;;;;;35.11;23.63;100528.22;4961492;28;20035;-76
2021/09/24 10:48:42;;;;;;;0.30;0.25;;;;;;;35.07;24.15;100533.16;4953536;28;20063;-75
2021/09/24 10:51:11;;;;;;;0.45;0.35;;;;;;;35.32;24.57;100527.03;4948465;28;20043;-75
2021/09/24 10:57:16;;;;;;;;;;;;;;;;;;;;;
2021/09/24 10:59:42;;;;;;;0.60;0.40;;;;;;;36.08;23.09;100525.53;4957107;28;20103;-76
2021/09/24 11:02:39;;;;;;;4.22;0.40;;;;;;;37.03;22.76;100543.66;4962606;28;20096;-75
2021/09/24 11:05:09;;;;;;;0.57;0.20;;;;;;;37.60;22.10;100534.78;4967331;28;20034;-76
2021/09/24 11:07:39;;;;;;;1.70;0.28;;;;;;;37.94;21.55;100535.47;4958500;28;20027;-78
2021/09/24 11:10:07;;;;;;;0.43;0.40;;;;;;;38.42;21.89;100523.00;4959702;28;20039;-76
2021/09/24 11:13:09;;;;;;;0.55;0.40;;;;;;;39.02;19.73;100517.78;4954143;28;20032;-77
2021/09/24 11:16:00;;;;;;;3.53;0.20;;;;;;;39.02;20.60;100518.59;4956504;28;20103;-76
2021/09/24 11:19:03;;;;;;;0.40;0.38;;;;;;;39.37;20.39;100509.22;4967996;28;20050;-76
2021/09/24 11:21:40;;;;;;;1.27;0.60;;;;;;;39.69;20.62;100516.63;4960208;28;20058;-74
2021/09/24 11:24:27;;;;;;;0.28;0.28;;;;;;;39.95;20.10;100511.56;4966696;28;20019;-73
2021/09/24 11:26:55;;;;;;;0.52;0.32;;;;;;;39.93;20.54;100504.69;4964629;28;20057;-72
2021/09/24 11:29:22;;;;;;;0.68;0.47;;;;;;;40.06;20.62;100491.09;4950895;28;20095;-72
2021/09/24 11:32:01;;;;;;;0.52;0.35;;;;;;;40.44;20.71;100503.50;4940756;29;20031;-72
2021/09/24 11:34:33;;;;;;;0.70;0.40;;;;;;;40.48;20.11;100502.13;4954089;28;20235;-72
2021/09/24 11:37:21;;;;;;;0.32;0.22;;;;;;;40.64;19.75;100485.91;4953642;28;20062;-73
2021/09/24 11:40:26;;;;;;;3.03;0.30;;;;;;;40.78;19.88;100487.38;4985969;28;20043;-73
2021/09/24 11:42:57;;;;;;;0.32;0.17;;;;;;;40.75;19.90;100471.91;4977247;28;20027;-74
2021/09/24 11:48:39;;;;;;;;;;;;;;;;;;;;;
2021/09/24 11:51:39;;;;;;;1.33;0.30;;;;;;;41.38;19.29;100480.25;4983835;28;20110;-74
2021/09/24 11:54:19;;;;;;;0.82;0.50;;;;;;;41.17;19.36;100470.53;4979485;28;20043;-74
2021/09/24 11:56:57;;;;;;;;;;;;;;;;;;;;;
2021/09/24 11:59:23;;;;;;;0.90;0.10;;;;;;;41.74;19.12;100454.84;4966671;28;20446;-74
2021/09/24 12:01:50;;;;;;;0.77;0.20;;;;;;;41.98;18.92;100467.19;4969878;28;20051;-73
2021/09/24 12:04:31;;;;;;;;;;;;;;;;;;;;;
2021/09/24 12:06:59;;;;;;;0.55;0.22;;;;;;;42.32;18.68;100461.50;4966772;28;20107;-75
2021/09/24 12:09:37;;;;;;;0.40;0.40;;;;;;;42.71;18.47;100467.34;4948820;28;20023;-75
2021/09/24 12:12:19;;;;;;;0.32;0.22;;;;;;;43.02;18.22;100469.88;4965690;28;20117;-74
2021/09/24 12:14:55;;;;;;;0.30;0.20;;;;;;;42.88;17.93;100454.13;4967814;28;20114;-74
2021/09/24 12:17:26;;;;;;;0.40;0.20;;;;;;;42.99;18.38;100447.00;4977330;28;20031;-74
2021/09/24 12:19:51;;;;;;;0.30;0.20;;;;;;;43.20;17.38;100445.88;4975615;28;20035;-74
2021/09/24 12:22:17;;;;;;;0.52;0.30;;;;;;;43.27;17.69;100449.66;4965335;28;20074;-74
2021/09/24 12:24:47;;;;;;;2.15;0.10;;;;;;;43.29;17.82;100432.72;4974416;28;20026;-74
2021/09/24 12:27:22;;;;;;;0.52;0.10;;;;;;;43.66;17.55;100440.97;4969701;28;20054;-75
2021/09/24 12:29:56;;;;;;;0.40;0.30;;;;;;;43.63;17.24;100436.97;4968373;28;20035;-76
2021/09/24 12:32:24;;;;;;;0.80;0.38;;;;;;;43.51;16.79;100436.00;4958513;28;20055;-74
2021/09/24 12:34:53;;;;;;;0.25;0.22;;;;;;;43.58;17.69;100437.69;4982143;28;20094;-73
2021/09/24 12:37:42;;;;;;;0.32;0.17;;;;;;;44.18;16.42;100441.28;4979683;28;20094;-73
2021/09/24 12:40:37;;;;;;;0.60;0.28;;;;;;;44.13;16.71;100436.22;4965525;28;20032;-73
2021/09/24 12:43:03;;;;;;;0.57;0.30;;;;;;;44.26;16.97;100435.91;4978608;28;20047;-72